sensor_id;sensor_type;location;lat;lon;timestamp;pressure;altitude;pressure_sealevel;temperature;humidity
20009;BME280;10165;42.662;23.260;2023-05-08T00:01:24;94285.72;;;16.61;54.82
20009;BME280;10165;42.662;23.260;2023-05-08T00:03:51;94288.09;;;16.69;54.68
20009;BME280;10165;42.662;23.260;2023-05-08T00:06:18;94283.91;;;16.83;54.50
20009;BME280;10165;42.662;23.260;2023-05-08T00:08:45;94284.75;;;16.94;53.88
20009;BME280;10165;42.662;23.260;2023-05-08T00:11:12;94285.50;;;16.29;56.03
20009;BME280;10165;42.662;23.260;2023-05-08T00:13:38;94289.63;;;16.67;55.00
20009;BME280;10165;42.662;23.260;2023-05-08T00:16:07;94297.09;;;16.33;55.48
20009;BME280;10165;42.662;23.260;2023-05-08T00:18:38;94295.59;;;16.39;55.76
20009;BME280;10165;42.662;23.260;2023-05-08T00:21:05;94292.22;;;16.53;55.23
20009;BME280;10165;42.662;23.260;2023-05-08T00:23:32;94301.84;;;16.50;55.50
20009;BME280;10165;42.662;23.260;2023-05-08T00:25:59;94300.38;;;16.63;55.12
20009;BME280;10165;42.662;23.260;2023-05-08T00:28:26;94305.88;;;16.78;54.27
20009;BME280;10165;42.662;23.260;2023-05-08T00:30:52;94303.56;;;16.83;54.28
20009;BME280;10165;42.662;23.260;2023-05-08T00:33:19;94303.94;;;16.75;54.63
20009;BME280;10165;42.662;23.260;2023-05-08T00:35:46;94296.16;;;16.62;54.57
20009;BME280;10165;42.662;23.260;2023-05-08T00:38:13;94301.22;;;16.75;54.46
20009;BME280;10165;42.662;23.260;2023-05-08T00:40:41;94297.34;;;16.72;54.37
20009;BME280;10165;42.662;23.260;2023-05-08T00:43:08;94297.84;;;16.30;54.94
20009;BME280;10165;42.662;23.260;2023-05-08T00:45:36;94296.44;;;16.50;54.92
20009;BME280;10165;42.662;23.260;2023-05-08T00:48:05;94300.00;;;16.65;54.63
20009;BME280;10165;42.662;23.260;2023-05-08T00:50:33;94304.22;;;16.59;54.53
20009;BME280;10165;42.662;23.260;2023-05-08T00:53:01;94308.09;;;16.61;54.52
20009;BME280;10165;42.662;23.260;2023-05-08T00:55:30;94304.81;;;16.35;55.08
20009;BME280;10165;42.662;23.260;2023-05-08T00:57:58;94304.88;;;16.45;55.01
20009;BME280;10165;42.662;23.260;2023-05-08T01:00:25;94306.38;;;16.39;55.35
20009;BME280;10165;42.662;23.260;2023-05-08T01:02:52;94304.78;;;16.31;55.47
20009;BME280;10165;42.662;23.260;2023-05-08T01:05:19;94305.97;;;15.83;56.73
20009;BME280;10165;42.662;23.260;2023-05-08T01:07:46;94308.94;;;16.18;56.00
20009;BME280;10165;42.662;23.260;2023-05-08T01:10:12;94310.28;;;16.45;55.32
20009;BME280;10165;42.662;23.260;2023-05-08T01:15:28;94316.50;;;15.98;56.21
20009;BME280;10165;42.662;23.260;2023-05-08T01:21:02;94314.34;;;16.21;55.49
20009;BME280;10165;42.662;23.260;2023-05-08T01:32:19;94309.69;;;16.15;55.78
20009;BME280;10165;42.662;23.260;2023-05-08T01:34:58;94305.50;;;16.21;55.36
20009;BME280;10165;42.662;23.260;2023-05-08T01:37:38;94306.31;;;16.25;55.24
20009;BME280;10165;42.662;23.260;2023-05-08T01:40:24;94301.44;;;15.94;55.92
20009;BME280;10165;42.662;23.260;2023-05-08T01:43:11;94301.66;;;16.25;55.13
20009;BME280;10165;42.662;23.260;2023-05-08T01:45:44;94299.38;;;15.76;56.44
20009;BME280;10165;42.662;23.260;2023-05-08T01:48:27;94299.53;;;15.94;56.19
20009;BME280;10165;42.662;23.260;2023-05-08T01:51:05;94291.13;;;16.06;55.80
20009;BME280;10165;42.662;23.260;2023-05-08T01:53:37;94295.41;;;16.11;55.94
20009;BME280;10165;42.662;23.260;2023-05-08T01:56:12;94294.34;;;16.22;55.42
20009;BME280;10165;42.662;23.260;2023-05-08T01:58:40;94299.25;;;16.10;55.40
20009;BME280;10165;42.662;23.260;2023-05-08T02:01:08;94294.97;;;16.02;55.81
20009;BME280;10165;42.662;23.260;2023-05-08T02:03:37;94290.78;;;16.11;55.52
20009;BME280;10165;42.662;23.260;2023-05-08T02:06:05;94298.81;;;16.04;55.85
20009;BME280;10165;42.662;23.260;2023-05-08T02:08:33;94296.19;;;16.11;55.70
20009;BME280;10165;42.662;23.260;2023-05-08T02:11:03;94300.88;;;15.37;57.54
20009;BME280;10165;42.662;23.260;2023-05-08T02:13:32;94301.78;;;15.48;57.33
20009;BME280;10165;42.662;23.260;2023-05-08T02:16:01;94301.28;;;15.76;57.09
20009;BME280;10165;42.662;23.260;2023-05-08T02:18:29;94305.28;;;15.93;56.49
20009;BME280;10165;42.662;23.260;2023-05-08T02:20:58;94303.06;;;16.02;55.96
20009;BME280;10165;42.662;23.260;2023-05-08T02:23:26;94304.50;;;15.92;56.20
20009;BME280;10165;42.662;23.260;2023-05-08T02:25:54;94292.66;;;16.04;56.03
20009;BME280;10165;42.662;23.260;2023-05-08T02:28:22;94299.88;;;15.89;56.78
20009;BME280;10165;42.662;23.260;2023-05-08T02:30:50;94300.41;;;16.09;56.16
20009;BME280;10165;42.662;23.260;2023-05-08T02:33:18;94306.31;;;16.25;55.72
20009;BME280;10165;42.662;23.260;2023-05-08T02:35:47;94307.72;;;16.08;55.80
20009;BME280;10165;42.662;23.260;2023-05-08T02:38:18;94306.91;;;15.60;57.47
20009;BME280;10165;42.662;23.260;2023-05-08T02:40:53;94301.13;;;15.58;57.06
20009;BME280;10165;42.662;23.260;2023-05-08T02:43:21;94310.16;;;15.40;58.04
20009;BME280;10165;42.662;23.260;2023-05-08T02:45:51;94313.38;;;14.86;59.55
20009;BME280;10165;42.662;23.260;2023-05-08T02:48:30;94314.25;;;14.63;61.03
20009;BME280;10165;42.662;23.260;2023-05-08T02:51:03;94310.81;;;14.96;60.10
20009;BME280;10165;42.662;23.260;2023-05-08T02:53:50;94315.91;;;14.45;61.47
20009;BME280;10165;42.662;23.260;2023-05-08T02:59:36;94305.16;;;15.05;60.09
20009;BME280;10165;42.662;23.260;2023-05-08T03:04:40;94307.25;;;15.55;57.60
20009;BME280;10165;42.662;23.260;2023-05-08T03:07:11;94306.88;;;15.20;59.00
20009;BME280;10165;42.662;23.260;2023-05-08T03:09:44;94310.69;;;15.52;58.02
20009;BME280;10165;42.662;23.260;2023-05-08T03:12:22;94303.63;;;15.77;57.38
20009;BME280;10165;42.662;23.260;2023-05-08T03:14:59;94316.31;;;15.40;58.22
20009;BME280;10165;42.662;23.260;2023-05-08T03:17:30;94315.56;;;15.43;58.36
20009;BME280;10165;42.662;23.260;2023-05-08T03:20:02;94320.28;;;15.50;58.56
20009;BME280;10165;42.662;23.260;2023-05-08T03:22:29;94317.84;;;15.78;57.39
20009;BME280;10165;42.662;23.260;2023-05-08T03:24:59;94321.03;;;15.50;57.73
20009;BME280;10165;42.662;23.260;2023-05-08T03:27:28;94319.91;;;15.51;57.99
20009;BME280;10165;42.662;23.260;2023-05-08T03:29:56;94315.16;;;15.41;58.29
20009;BME280;10165;42.662;23.260;2023-05-08T03:32:26;94319.50;;;15.49;58.13
20009;BME280;10165;42.662;23.260;2023-05-08T03:34:54;94324.09;;;15.15;59.29
20009;BME280;10165;42.662;23.260;2023-05-08T03:37:28;94327.78;;;15.37;59.30
20009;BME280;10165;42.662;23.260;2023-05-08T03:39:55;94323.06;;;15.60;58.07
20009;BME280;10165;42.662;23.260;2023-05-08T03:42:25;94314.13;;;15.53;58.45
20009;BME280;10165;42.662;23.260;2023-05-08T03:44:53;94326.06;;;15.52;58.89
20009;BME280;10165;42.662;23.260;2023-05-08T03:47:20;94316.50;;;15.58;58.95
20009;BME280;10165;42.662;23.260;2023-05-08T03:49:48;94319.13;;;15.95;57.63
20009;BME280;10165;42.662;23.260;2023-05-08T03:52:15;94320.31;;;15.94;57.51
20009;BME280;10165;42.662;23.260;2023-05-08T03:54:42;94318.97;;;16.21;56.71
20009;BME280;10165;42.662;23.260;2023-05-08T03:57:09;94319.34;;;16.19;56.74
20009;BME280;10165;42.662;23.260;2023-05-08T04:02:27;94329.84;;;16.32;56.10
20009;BME280;10165;42.662;23.260;2023-05-08T04:05:03;94327.19;;;16.39;56.15
20009;BME280;10165;42.662;23.260;2023-05-08T04:07:37;94326.31;;;16.24;56.54
20009;BME280;10165;42.662;23.260;2023-05-08T04:10:23;94330.97;;;16.31;56.35
20009;BME280;10165;42.662;23.260;2023-05-08T04:15:43;94341.72;;;15.43;60.36
20009;BME280;10165;42.662;23.260;2023-05-08T04:18:16;94343.09;;;15.63;60.02
20009;BME280;10165;42.662;23.260;2023-05-08T04:20:47;94340.13;;;15.38;61.17
20009;BME280;10165;42.662;23.260;2023-05-08T04:23:17;94339.75;;;15.40;61.88
20009;BME280;10165;42.662;23.260;2023-05-08T04:25:46;94349.63;;;15.28;61.53
20009;BME280;10165;42.662;23.260;2023-05-08T04:28:14;94342.13;;;15.82;60.41
20009;BME280;10165;42.662;23.260;2023-05-08T04:30:41;94348.63;;;15.77;60.04
20009;BME280;10165;42.662;23.260;2023-05-08T04:33:08;94347.34;;;16.08;59.14
20009;BME280;10165;42.662;23.260;2023-05-08T04:35:35;94346.66;;;15.70;59.83
20009;BME280;10165;42.662;23.260;2023-05-08T04:38:02;94345.47;;;16.12;59.06
20009;BME280;10165;42.662;23.260;2023-05-08T04:40:28;94347.47;;;16.22;58.04
20009;BME280;10165;42.662;23.260;2023-05-08T04:42:55;94343.25;;;16.21;58.23
20009;BME280;10165;42.662;23.260;2023-05-08T04:45:22;94337.50;;;16.30;57.46
20009;BME280;10165;42.662;23.260;2023-05-08T04:47:48;94334.13;;;16.40;57.49
20009;BME280;10165;42.662;23.260;2023-05-08T04:50:15;94334.03;;;16.29;56.97
20009;BME280;10165;42.662;23.260;2023-05-08T04:52:42;94336.19;;;16.57;56.70
20009;BME280;10165;42.662;23.260;2023-05-08T04:55:08;94330.44;;;16.62;56.21
20009;BME280;10165;42.662;23.260;2023-05-08T04:57:36;94330.94;;;16.85;55.63
20009;BME280;10165;42.662;23.260;2023-05-08T05:00:03;94320.94;;;16.86;55.08
20009;BME280;10165;42.662;23.260;2023-05-08T05:02:31;94326.59;;;16.59;55.49
20009;BME280;10165;42.662;23.260;2023-05-08T05:04:58;94326.28;;;16.20;55.83
20009;BME280;10165;42.662;23.260;2023-05-08T05:07:27;94322.31;;;16.04;56.87
20009;BME280;10165;42.662;23.260;2023-05-08T05:09:53;94321.59;;;16.14;56.47
20009;BME280;10165;42.662;23.260;2023-05-08T05:12:20;94313.34;;;16.40;55.10
20009;BME280;10165;42.662;23.260;2023-05-08T05:14:47;94317.22;;;16.50;54.87
20009;BME280;10165;42.662;23.260;2023-05-08T05:17:13;94320.44;;;16.62;54.55
20009;BME280;10165;42.662;23.260;2023-05-08T05:19:40;94315.56;;;16.27;55.10
20009;BME280;10165;42.662;23.260;2023-05-08T05:22:07;94319.03;;;16.32;55.90
20009;BME280;10165;42.662;23.260;2023-05-08T05:24:34;94317.59;;;16.48;55.39
20009;BME280;10165;42.662;23.260;2023-05-08T05:27:01;94315.53;;;16.82;54.89
20009;BME280;10165;42.662;23.260;2023-05-08T05:29:28;94327.78;;;16.72;54.06
20009;BME280;10165;42.662;23.260;2023-05-08T05:32:00;94324.00;;;16.84;53.90
20009;BME280;10165;42.662;23.260;2023-05-08T05:34:27;94320.47;;;16.69;55.00
20009;BME280;10165;42.662;23.260;2023-05-08T05:36:54;94318.41;;;16.52;54.36
20009;BME280;10165;42.662;23.260;2023-05-08T05:39:21;94322.94;;;17.03;53.52
20009;BME280;10165;42.662;23.260;2023-05-08T05:41:47;94323.03;;;17.28;52.54
20009;BME280;10165;42.662;23.260;2023-05-08T05:44:14;94323.66;;;16.89;53.70
20009;BME280;10165;42.662;23.260;2023-05-08T05:46:41;94328.75;;;17.08;53.43
20009;BME280;10165;42.662;23.260;2023-05-08T05:49:10;94325.88;;;16.73;53.22
20009;BME280;10165;42.662;23.260;2023-05-08T05:51:37;94321.53;;;17.48;51.81
20009;BME280;10165;42.662;23.260;2023-05-08T05:54:04;94326.00;;;16.98;53.43
20009;BME280;10165;42.662;23.260;2023-05-08T05:56:30;94313.72;;;17.18;52.94
20009;BME280;10165;42.662;23.260;2023-05-08T05:58:57;94318.00;;;16.47;53.97
20009;BME280;10165;42.662;23.260;2023-05-08T06:01:24;94311.59;;;16.69;54.01
20009;BME280;10165;42.662;23.260;2023-05-08T06:03:51;94313.38;;;17.19;52.48
20009;BME280;10165;42.662;23.260;2023-05-08T06:06:18;94307.22;;;17.26;52.03
20009;BME280;10165;42.662;23.260;2023-05-08T06:08:45;94310.81;;;17.73;51.93
20009;BME280;10165;42.662;23.260;2023-05-08T06:11:13;94308.06;;;17.51;51.65
20009;BME280;10165;42.662;23.260;2023-05-08T06:13:40;94313.88;;;17.71;51.58
20009;BME280;10165;42.662;23.260;2023-05-08T06:16:07;94309.56;;;17.38;51.97
20009;BME280;10165;42.662;23.260;2023-05-08T06:18:34;94306.84;;;17.38;51.59
20009;BME280;10165;42.662;23.260;2023-05-08T06:21:02;94304.22;;;17.59;51.47
20009;BME280;10165;42.662;23.260;2023-05-08T06:23:28;94300.78;;;17.59;51.40
20009;BME280;10165;42.662;23.260;2023-05-08T06:25:55;94298.09;;;18.05;50.79
20009;BME280;10165;42.662;23.260;2023-05-08T06:28:22;94294.59;;;18.40;50.23
20009;BME280;10165;42.662;23.260;2023-05-08T06:30:51;94303.03;;;18.84;48.98
20009;BME280;10165;42.662;23.260;2023-05-08T06:33:18;94306.16;;;18.44;48.75
20009;BME280;10165;42.662;23.260;2023-05-08T06:35:45;94303.88;;;18.42;49.68
20009;BME280;10165;42.662;23.260;2023-05-08T06:38:13;94319.34;;;17.78;51.04
20009;BME280;10165;42.662;23.260;2023-05-08T06:40:44;94314.31;;;18.12;49.98
20009;BME280;10165;42.662;23.260;2023-05-08T06:43:12;94306.19;;;18.54;49.04
20009;BME280;10165;42.662;23.260;2023-05-08T06:45:39;94306.19;;;18.23;49.38
20009;BME280;10165;42.662;23.260;2023-05-08T06:48:06;94310.00;;;18.82;48.35
20009;BME280;10165;42.662;23.260;2023-05-08T06:50:33;94312.38;;;18.55;48.59
20009;BME280;10165;42.662;23.260;2023-05-08T06:52:59;94307.31;;;18.68;49.75
20009;BME280;10165;42.662;23.260;2023-05-08T06:55:26;94315.09;;;18.12;49.92
20009;BME280;10165;42.662;23.260;2023-05-08T06:57:53;94308.50;;;18.35;49.70
20009;BME280;10165;42.662;23.260;2023-05-08T07:00:20;94316.22;;;18.36;49.16
20009;BME280;10165;42.662;23.260;2023-05-08T07:02:46;94315.09;;;18.23;49.86
20009;BME280;10165;42.662;23.260;2023-05-08T07:05:13;94327.06;;;18.08;50.62
20009;BME280;10165;42.662;23.260;2023-05-08T07:07:41;94328.22;;;17.93;50.76
20009;BME280;10165;42.662;23.260;2023-05-08T07:10:08;94319.28;;;18.84;49.67
20009;BME280;10165;42.662;23.260;2023-05-08T07:12:35;94325.81;;;18.87;48.89
20009;BME280;10165;42.662;23.260;2023-05-08T07:15:02;94318.53;;;18.70;49.18
20009;BME280;10165;42.662;23.260;2023-05-08T07:17:43;94320.09;;;18.60;48.76
20009;BME280;10165;42.662;23.260;2023-05-08T07:20:10;94313.38;;;19.10;48.60
20009;BME280;10165;42.662;23.260;2023-05-08T07:22:36;94320.88;;;18.57;49.37
20009;BME280;10165;42.662;23.260;2023-05-08T07:25:04;94314.97;;;18.97;48.60
20009;BME280;10165;42.662;23.260;2023-05-08T07:27:31;94321.25;;;18.52;49.55
20009;BME280;10165;42.662;23.260;2023-05-08T07:29:57;94318.03;;;19.03;49.20
20009;BME280;10165;42.662;23.260;2023-05-08T07:32:29;94323.56;;;18.32;50.79
20009;BME280;10165;42.662;23.260;2023-05-08T07:34:57;94321.63;;;18.47;49.76
20009;BME280;10165;42.662;23.260;2023-05-08T07:37:24;94322.44;;;18.54;50.17
20009;BME280;10165;42.662;23.260;2023-05-08T07:39:51;94323.56;;;18.29;49.96
20009;BME280;10165;42.662;23.260;2023-05-08T07:42:17;94327.84;;;18.23;49.74
20009;BME280;10165;42.662;23.260;2023-05-08T07:44:44;94327.31;;;19.05;48.53
20009;BME280;10165;42.662;23.260;2023-05-08T07:47:20;94328.50;;;18.97;48.17
20009;BME280;10165;42.662;23.260;2023-05-08T07:49:47;94319.81;;;19.45;47.65
20009;BME280;10165;42.662;23.260;2023-05-08T07:52:14;94326.19;;;18.96;48.31
20009;BME280;10165;42.662;23.260;2023-05-08T07:54:41;94333.63;;;18.42;49.37
20009;BME280;10165;42.662;23.260;2023-05-08T07:57:08;94344.06;;;18.61;49.61
20009;BME280;10165;42.662;23.260;2023-05-08T07:59:34;94338.66;;;18.47;48.89
20009;BME280;10165;42.662;23.260;2023-05-08T08:02:01;94338.66;;;18.61;48.57
20009;BME280;10165;42.662;23.260;2023-05-08T08:04:28;94334.59;;;19.23;47.72
20009;BME280;10165;42.662;23.260;2023-05-08T08:06:55;94335.97;;;19.70;46.60
20009;BME280;10165;42.662;23.260;2023-05-08T08:09:22;94340.03;;;19.19;48.06
20009;BME280;10165;42.662;23.260;2023-05-08T08:11:49;94332.22;;;19.46;47.67
20009;BME280;10165;42.662;23.260;2023-05-08T08:14:16;94332.94;;;19.53;47.40
20009;BME280;10165;42.662;23.260;2023-05-08T08:16:42;94330.00;;;19.20;48.71
20009;BME280;10165;42.662;23.260;2023-05-08T08:19:09;94331.97;;;19.08;49.56
20009;BME280;10165;42.662;23.260;2023-05-08T08:21:43;94323.03;;;19.91;48.00
20009;BME280;10165;42.662;23.260;2023-05-08T08:24:11;94324.25;;;19.83;48.59
20009;BME280;10165;42.662;23.260;2023-05-08T08:26:38;94328.25;;;19.65;49.65
20009;BME280;10165;42.662;23.260;2023-05-08T08:29:05;94318.25;;;20.10;48.77
20009;BME280;10165;42.662;23.260;2023-05-08T08:31:32;94310.47;;;19.56;50.86
20009;BME280;10165;42.662;23.260;2023-05-08T08:33:59;94311.94;;;20.27;50.27
20009;BME280;10165;42.662;23.260;2023-05-08T08:36:25;94308.91;;;20.62;48.99
20009;BME280;10165;42.662;23.260;2023-05-08T08:38:52;94301.31;;;20.46;48.80
20009;BME280;10165;42.662;23.260;2023-05-08T08:41:19;94301.84;;;20.24;49.95
20009;BME280;10165;42.662;23.260;2023-05-08T08:43:46;94301.13;;;20.16;49.64
20009;BME280;10165;42.662;23.260;2023-05-08T08:46:13;94295.75;;;20.13;48.97
20009;BME280;10165;42.662;23.260;2023-05-08T08:48:45;94294.13;;;20.22;49.50
20009;BME280;10165;42.662;23.260;2023-05-08T08:51:27;94289.09;;;20.21;49.60
20009;BME280;10165;42.662;23.260;2023-05-08T08:54:08;94286.34;;;20.69;48.69
20009;BME280;10165;42.662;23.260;2023-05-08T08:56:36;94280.81;;;21.13;47.38
20009;BME280;10165;42.662;23.260;2023-05-08T08:59:05;94273.16;;;21.38;46.91
20009;BME280;10165;42.662;23.260;2023-05-08T09:01:39;94269.97;;;21.10;46.83
20009;BME280;10165;42.662;23.260;2023-05-08T09:04:07;94271.28;;;20.98;47.74
20009;BME280;10165;42.662;23.260;2023-05-08T09:06:35;94264.81;;;21.22;47.45
20009;BME280;10165;42.662;23.260;2023-05-08T09:09:03;94259.56;;;21.65;46.33
20009;BME280;10165;42.662;23.260;2023-05-08T09:11:30;94262.41;;;21.28;46.77
20009;BME280;10165;42.662;23.260;2023-05-08T09:13:57;94248.81;;;21.28;46.14
20009;BME280;10165;42.662;23.260;2023-05-08T09:16:24;94250.31;;;21.32;47.87
20009;BME280;10165;42.662;23.260;2023-05-08T09:18:53;94249.00;;;21.14;46.62
20009;BME280;10165;42.662;23.260;2023-05-08T09:21:20;94240.06;;;21.97;44.76
20009;BME280;10165;42.662;23.260;2023-05-08T09:24:08;94230.06;;;22.14;43.65
20009;BME280;10165;42.662;23.260;2023-05-08T09:26:37;94211.00;;;22.37;43.81
20009;BME280;10165;42.662;23.260;2023-05-08T09:31:37;94221.16;;;22.56;42.63
20009;BME280;10165;42.662;23.260;2023-05-08T09:34:08;94222.41;;;22.52;43.95
20009;BME280;10165;42.662;23.260;2023-05-08T09:36:36;94231.06;;;22.66;44.41
20009;BME280;10165;42.662;23.260;2023-05-08T09:39:09;94248.72;;;22.15;44.24
20009;BME280;10165;42.662;23.260;2023-05-08T09:41:37;94245.38;;;22.04;44.15
20009;BME280;10165;42.662;23.260;2023-05-08T09:44:05;94251.38;;;20.74;46.81
20009;BME280;10165;42.662;23.260;2023-05-08T09:46:33;94256.94;;;20.64;48.57
20009;BME280;10165;42.662;23.260;2023-05-08T09:49:01;94263.56;;;20.18;50.17
20009;BME280;10165;42.662;23.260;2023-05-08T09:51:29;94245.94;;;20.74;49.51
20009;BME280;10165;42.662;23.260;2023-05-08T09:53:58;94263.06;;;21.35;48.00
20009;BME280;10165;42.662;23.260;2023-05-08T09:56:43;94268.03;;;20.76;49.33
20009;BME280;10165;42.662;23.260;2023-05-08T09:59:26;94255.72;;;21.02;48.62
20009;BME280;10165;42.662;23.260;2023-05-08T10:01:56;94256.97;;;21.55;47.50
20009;BME280;10165;42.662;23.260;2023-05-08T10:04:33;94266.63;;;21.32;46.70
20009;BME280;10165;42.662;23.260;2023-05-08T10:07:01;94262.97;;;21.16;47.24
20009;BME280;10165;42.662;23.260;2023-05-08T10:09:28;94248.94;;;21.48;46.94
20009;BME280;10165;42.662;23.260;2023-05-08T10:12:12;94243.59;;;21.94;46.35
20009;BME280;10165;42.662;23.260;2023-05-08T10:14:39;94238.94;;;22.41;45.95
20009;BME280;10165;42.662;23.260;2023-05-08T10:17:06;94248.41;;;21.83;46.25
20009;BME280;10165;42.662;23.260;2023-05-08T10:19:37;94237.31;;;22.44;46.15
20009;BME280;10165;42.662;23.260;2023-05-08T10:22:10;94233.78;;;22.23;45.51
20009;BME280;10165;42.662;23.260;2023-05-08T10:24:40;94232.00;;;22.36;46.20
20009;BME280;10165;42.662;23.260;2023-05-08T10:27:08;94230.47;;;22.12;46.05
20009;BME280;10165;42.662;23.260;2023-05-08T10:29:54;94226.53;;;21.90;46.88
20009;BME280;10165;42.662;23.260;2023-05-08T10:32:22;94233.31;;;22.05;47.02
20009;BME280;10165;42.662;23.260;2023-05-08T10:34:58;94229.94;;;21.71;47.09
20009;BME280;10165;42.662;23.260;2023-05-08T10:37:28;94226.50;;;21.93;46.78
20009;BME280;10165;42.662;23.260;2023-05-08T10:39:56;94222.31;;;22.12;46.47
20009;BME280;10165;42.662;23.260;2023-05-08T10:42:23;94225.75;;;21.66;46.90
20009;BME280;10165;42.662;23.260;2023-05-08T10:44:51;94217.81;;;21.52;47.65
20009;BME280;10165;42.662;23.260;2023-05-08T10:47:24;94213.94;;;21.76;47.98
20009;BME280;10165;42.662;23.260;2023-05-08T10:50:05;94199.91;;;22.48;45.74
20009;BME280;10165;42.662;23.260;2023-05-08T10:53:06;94205.84;;;22.19;47.50
20009;BME280;10165;42.662;23.260;2023-05-08T10:55:36;94208.22;;;21.44;48.42
20009;BME280;10165;42.662;23.260;2023-05-08T10:58:14;94202.78;;;21.44;48.13
20009;BME280;10165;42.662;23.260;2023-05-08T11:03:27;94199.13;;;21.54;48.70
20009;BME280;10165;42.662;23.260;2023-05-08T11:05:59;94197.03;;;21.92;47.95
20009;BME280;10165;42.662;23.260;2023-05-08T11:08:28;94195.06;;;21.89;46.91
20009;BME280;10165;42.662;23.260;2023-05-08T11:13:34;94185.44;;;22.11;47.22
20009;BME280;10165;42.662;23.260;2023-05-08T11:16:02;94171.81;;;22.11;46.41
20009;BME280;10165;42.662;23.260;2023-05-08T11:18:29;94174.47;;;22.15;46.96
20009;BME280;10165;42.662;23.260;2023-05-08T11:21:15;94163.19;;;22.36;46.18
20009;BME280;10165;42.662;23.260;2023-05-08T11:23:55;94171.72;;;22.58;45.60
20009;BME280;10165;42.662;23.260;2023-05-08T11:26:37;94152.78;;;21.88;46.64
20009;BME280;10165;42.662;23.260;2023-05-08T11:29:15;94158.91;;;22.35;45.62
20009;BME280;10165;42.662;23.260;2023-05-08T11:31:49;94149.84;;;22.22;45.08
20009;BME280;10165;42.662;23.260;2023-05-08T11:39:36;94143.22;;;22.42;44.99
20009;BME280;10165;42.662;23.260;2023-05-08T11:45:12;94139.03;;;22.58;43.46
20009;BME280;10165;42.662;23.260;2023-05-08T11:47:41;94131.16;;;22.83;43.45
20009;BME280;10165;42.662;23.260;2023-05-08T11:50:10;94127.03;;;22.55;43.53
20009;BME280;10165;42.662;23.260;2023-05-08T11:52:39;94130.38;;;22.23;43.82
20009;BME280;10165;42.662;23.260;2023-05-08T11:55:08;94119.03;;;22.68;42.48
20009;BME280;10165;42.662;23.260;2023-05-08T11:57:36;94114.72;;;23.22;42.29
20009;BME280;10165;42.662;23.260;2023-05-08T12:00:08;94122.00;;;22.93;42.00
20009;BME280;10165;42.662;23.260;2023-05-08T12:02:41;94123.28;;;22.49;42.13
20009;BME280;10165;42.662;23.260;2023-05-08T12:05:09;94109.81;;;23.66;40.43
20009;BME280;10165;42.662;23.260;2023-05-08T12:07:46;94115.41;;;23.10;40.99
20009;BME280;10165;42.662;23.260;2023-05-08T12:10:14;94110.50;;;23.54;40.68
20009;BME280;10165;42.662;23.260;2023-05-08T12:12:43;94110.22;;;23.32;41.11
20009;BME280;10165;42.662;23.260;2023-05-08T12:15:12;94110.78;;;23.07;41.69
20009;BME280;10165;42.662;23.260;2023-05-08T12:17:40;94114.81;;;22.83;42.25
20009;BME280;10165;42.662;23.260;2023-05-08T12:20:17;94111.13;;;23.09;41.13
20009;BME280;10165;42.662;23.260;2023-05-08T12:22:51;94109.91;;;22.94;41.91
20009;BME280;10165;42.662;23.260;2023-05-08T12:25:19;94108.84;;;22.72;43.12
20009;BME280;10165;42.662;23.260;2023-05-08T12:27:46;94114.47;;;22.61;44.65
20009;BME280;10165;42.662;23.260;2023-05-08T12:30:13;94111.25;;;22.66;49.54
20009;BME280;10165;42.662;23.260;2023-05-08T12:32:42;94114.06;;;22.43;51.08
20009;BME280;10165;42.662;23.260;2023-05-08T12:35:11;94102.81;;;22.61;52.04
20009;BME280;10165;42.662;23.260;2023-05-08T12:37:38;94116.06;;;22.59;51.29
20009;BME280;10165;42.662;23.260;2023-05-08T12:40:06;94116.78;;;22.82;50.78
20009;BME280;10165;42.662;23.260;2023-05-08T12:42:47;94104.91;;;22.53;52.02
20009;BME280;10165;42.662;23.260;2023-05-08T12:45:19;94105.69;;;22.54;51.38
20009;BME280;10165;42.662;23.260;2023-05-08T12:47:49;94102.34;;;22.26;53.45
20009;BME280;10165;42.662;23.260;2023-05-08T12:50:18;94101.44;;;22.72;52.61
20009;BME280;10165;42.662;23.260;2023-05-08T12:52:49;94107.97;;;22.35;50.84
20009;BME280;10165;42.662;23.260;2023-05-08T12:55:25;94108.34;;;22.37;49.78
20009;BME280;10165;42.662;23.260;2023-05-08T13:00:35;94096.91;;;23.02;47.54
20009;BME280;10165;42.662;23.260;2023-05-08T13:03:03;94089.53;;;22.82;47.26
20009;BME280;10165;42.662;23.260;2023-05-08T13:05:30;94094.06;;;22.89;46.16
20009;BME280;10165;42.662;23.260;2023-05-08T13:08:02;94090.28;;;23.19;46.32
20009;BME280;10165;42.662;23.260;2023-05-08T13:11:02;94098.88;;;22.81;48.23
20009;BME280;10165;42.662;23.260;2023-05-08T13:13:31;94097.19;;;23.07;47.07
20009;BME280;10165;42.662;23.260;2023-05-08T13:16:04;94101.66;;;22.98;47.05
20009;BME280;10165;42.662;23.260;2023-05-08T13:18:32;94100.19;;;22.18;50.32
20009;BME280;10165;42.662;23.260;2023-05-08T13:21:01;94108.19;;;22.05;50.73
20009;BME280;10165;42.662;23.260;2023-05-08T13:23:29;94099.53;;;22.10;50.54
20009;BME280;10165;42.662;23.260;2023-05-08T13:25:55;94108.38;;;21.95;50.67
20009;BME280;10165;42.662;23.260;2023-05-08T13:28:22;94116.78;;;22.04;49.06
20009;BME280;10165;42.662;23.260;2023-05-08T13:30:49;94129.28;;;21.51;50.73
20009;BME280;10165;42.662;23.260;2023-05-08T13:33:16;94139.63;;;21.60;50.26
20009;BME280;10165;42.662;23.260;2023-05-08T13:35:42;94135.34;;;21.09;51.02
20009;BME280;10165;42.662;23.260;2023-05-08T13:38:09;94144.50;;;20.91;52.05
20009;BME280;10165;42.662;23.260;2023-05-08T13:40:36;94151.31;;;20.76;51.90
20009;BME280;10165;42.662;23.260;2023-05-08T13:43:02;94152.84;;;20.77;52.33
20009;BME280;10165;42.662;23.260;2023-05-08T13:45:29;94156.91;;;20.92;51.46
20009;BME280;10165;42.662;23.260;2023-05-08T13:47:56;94162.31;;;20.62;52.28